createdAt,value
2022-10-18T00:01:54.118Z,101551.05
2022-10-18T00:04:44.233Z,101550.46
2022-10-18T00:07:34.312Z,101549.56
2022-10-18T00:10:24.615Z,101549.95
2022-10-18T00:13:14.621Z,101553.77
2022-10-18T00:16:10.984Z,101552.04
2022-10-18T00:19:00.967Z,101553.63
2022-10-18T00:21:52.221Z,101549.48
2022-10-18T00:24:42.297Z,101552.83
2022-10-18T00:27:34.383Z,101548.77
2022-10-18T00:30:25.928Z,101547.64
2022-10-18T00:33:15.959Z,101549.13
2022-10-18T00:36:07.409Z,101545.73
2022-10-18T00:38:57.381Z,101548.61
2022-10-18T00:41:47.666Z,101547.49
2022-10-18T00:45:15.854Z,101547.25
2022-10-18T00:48:06.729Z,101548.64
2022-10-18T00:50:56.685Z,101551.98
2022-10-18T00:53:46.642Z,101551.72
2022-10-18T00:56:36.722Z,101546.21
2022-10-18T00:59:27.279Z,101550.74
2022-10-18T01:02:17.942Z,101549.16
2022-10-18T01:05:11.359Z,101550.79
2022-10-18T01:08:24.961Z,101548.29
2022-10-18T01:11:33.351Z,101547.46
2022-10-18T01:14:39.057Z,101543.54
2022-10-18T01:17:33.848Z,101543.07
2022-10-18T01:20:49.646Z,101544.37
2022-10-18T01:24:03.710Z,101543.50
2022-10-18T01:27:15.516Z,101545.30
2022-10-18T01:30:40.632Z,101545.50
2022-10-18T01:33:37.527Z,101546.60
2022-10-18T01:36:29.767Z,101541.27
2022-10-18T01:39:21.374Z,101539.67
2022-10-18T01:42:13.146Z,101534.87
2022-10-18T01:45:03.405Z,101531.70
2022-10-18T01:47:53.376Z,101532.77
2022-10-18T01:50:43.433Z,101532.91
2022-10-18T01:53:34.332Z,101535.20
2022-10-18T01:56:37.680Z,101538.44
2022-10-18T01:59:40.064Z,101538.30
2022-10-18T02:02:43.034Z,101543.86
2022-10-18T02:05:39.577Z,101548.13
2022-10-18T02:08:32.554Z,101546.44
2022-10-18T02:11:22.669Z,101551.90
2022-10-18T02:14:14.214Z,101551.23
2022-10-18T02:17:05.433Z,101550.90
2022-10-18T02:19:55.775Z,101551.63
2022-10-18T02:22:45.743Z,101554.13
2022-10-18T02:25:36.632Z,101553.70
2022-10-18T02:28:26.680Z,101556.36
2022-10-18T02:31:21.166Z,101557.08
2022-10-18T02:34:16.896Z,101554.14
2022-10-18T02:37:07.136Z,101556.40
2022-10-18T02:39:57.443Z,101554.27
2022-10-18T02:42:50.294Z,101554.70
2022-10-18T02:45:40.521Z,101550.08
2022-10-18T02:48:30.470Z,101551.91
2022-10-18T02:51:20.517Z,101552.79
2022-10-18T02:54:10.721Z,101555.64
2022-10-18T02:57:00.720Z,101550.52
2022-10-18T02:59:50.843Z,101548.55
2022-10-18T03:02:40.920Z,101543.98
2022-10-18T03:05:31.106Z,101545.08
2022-10-18T03:08:22.237Z,101543.02
2022-10-18T03:11:12.185Z,101544.85
2022-10-18T03:14:02.279Z,101545.76
2022-10-18T03:16:52.540Z,101549.19
2022-10-18T03:19:42.584Z,101553.61
2022-10-18T03:22:32.590Z,101555.84
2022-10-18T03:25:22.603Z,101556.58
2022-10-18T03:28:12.514Z,101555.38
2022-10-18T03:31:03.628Z,101553.21
2022-10-18T03:33:53.544Z,101551.16
2022-10-18T03:36:44.100Z,101547.95
2022-10-18T03:39:34.152Z,101549.23
2022-10-18T03:42:24.545Z,101550.45
2022-10-18T03:45:14.629Z,101556.86
2022-10-18T03:48:06.039Z,101565.05
2022-10-18T03:50:55.966Z,101563.91
2022-10-18T03:53:45.954Z,101571.24
2022-10-18T03:56:35.912Z,101571.73
2022-10-18T03:59:26.026Z,101574.89
2022-10-18T04:02:16.056Z,101577.78
2022-10-18T04:05:07.985Z,101576.60
2022-10-18T04:07:59.695Z,101578.27
2022-10-18T04:10:49.776Z,101576.30
2022-10-18T04:13:39.798Z,101571.50
2022-10-18T04:16:29.952Z,101571.77
2022-10-18T04:19:20.098Z,101573.54
2022-10-18T04:22:11.618Z,101573.53
2022-10-18T04:25:01.541Z,101572.20
2022-10-18T04:27:51.525Z,101569.20
2022-10-18T04:30:41.536Z,101570.36
2022-10-18T04:33:31.696Z,101573.70
2022-10-18T04:36:21.775Z,101574.92
2022-10-18T04:39:11.935Z,101576.17
2022-10-18T04:42:01.910Z,101572.85
2022-10-18T04:44:52.297Z,101571.88
2022-10-18T04:47:42.309Z,101567.01
2022-10-18T04:50:32.350Z,101568.56
2022-10-18T04:53:22.396Z,101568.13
2022-10-18T04:56:12.456Z,101564.71
2022-10-18T04:59:02.420Z,101562.67
2022-10-18T05:01:52.577Z,101556.25
2022-10-18T05:04:42.609Z,101557.28
2022-10-18T05:07:32.962Z,101556.62
2022-10-18T05:10:23.105Z,101563.25
2022-10-18T05:13:14.378Z,101559.02
2022-10-18T05:16:04.851Z,101555.02
2022-10-18T05:18:54.796Z,101556.56
2022-10-18T05:21:44.738Z,101558.35
2022-10-18T05:24:34.772Z,101571.36
2022-10-18T05:27:24.868Z,101575.73
2022-10-18T05:30:14.918Z,101579.39
2022-10-18T05:33:05.164Z,101578.98
2022-10-18T05:35:55.382Z,101569.94
2022-10-18T05:38:47.321Z,101570.88
2022-10-18T05:41:37.506Z,101568.85
2022-10-18T05:44:27.580Z,101572.98
2022-10-18T05:47:17.808Z,101581.64
2022-10-18T05:50:09.125Z,101580.61
2022-10-18T05:53:11.838Z,101583.77
2022-10-18T05:56:05.708Z,101586.30
2022-10-18T05:58:56.107Z,101589.66
2022-10-18T06:01:52.857Z,101587.05
2022-10-18T06:04:42.811Z,101580.48
2022-10-18T06:07:32.950Z,101583.08
2022-10-18T06:10:23.260Z,101588.85
2022-10-18T06:13:15.297Z,101591.59
2022-10-18T06:16:06.777Z,101588.75
2022-10-18T06:18:59.197Z,101589.19
2022-10-18T06:21:49.171Z,101587.84
2022-10-18T06:24:39.017Z,101599.27
2022-10-18T06:27:31.239Z,101599.77
2022-10-18T06:30:21.389Z,101610.74
2022-10-18T06:33:11.733Z,101609.21
2022-10-18T06:36:04.141Z,101605.67
2022-10-18T06:38:55.542Z,101612.35
2022-10-18T06:41:45.485Z,101614.48
2022-10-18T06:44:42.190Z,101617.70
2022-10-18T06:47:32.063Z,101618.95
2022-10-18T06:50:21.931Z,101620.41
2022-10-18T06:53:11.785Z,101626.27
2022-10-18T06:56:02.737Z,101627.90
2022-10-18T06:58:52.611Z,101631.85
2022-10-18T07:01:43.275Z,101633.64
2022-10-18T07:04:33.978Z,101634.73
2022-10-18T07:07:23.897Z,101636.98
2022-10-18T07:10:13.744Z,101636.52
2022-10-18T07:13:27.376Z,101635.88
2022-10-18T07:16:18.188Z,101636.61
2022-10-18T07:19:08.829Z,101640.70
2022-10-18T07:21:58.760Z,101638.91
2022-10-18T07:24:48.702Z,101637.52
2022-10-18T07:27:38.901Z,101642.33
2022-10-18T07:30:29.324Z,101640.88
2022-10-18T07:33:20.144Z,101639.70
2022-10-18T07:36:11.426Z,101638.80
2022-10-18T07:39:01.272Z,101631.81
2022-10-18T07:41:51.223Z,101629.77
2022-10-18T07:44:41.454Z,101632.74
2022-10-18T07:47:34.353Z,101634.27
2022-10-18T07:50:26.015Z,101634.11
2022-10-18T07:53:16.025Z,101634.30
2022-10-18T07:56:09.682Z,101635.34
2022-10-18T07:58:59.812Z,101632.30
2022-10-18T08:01:49.746Z,101631.27
2022-10-18T08:04:39.673Z,101635.17
2022-10-18T08:07:29.810Z,101636.30
2022-10-18T08:10:22.041Z,101632.23
2022-10-18T08:13:22.846Z,101635.75
2022-10-18T08:16:14.113Z,101635.02
2022-10-18T08:19:04.237Z,101629.86
2022-10-18T08:21:54.135Z,101632.88
2022-10-18T08:24:45.269Z,101623.23
2022-10-18T08:27:35.508Z,101624.47
2022-10-18T08:30:25.469Z,101619.85
2022-10-18T08:33:15.814Z,101622.88
2022-10-18T08:36:07.604Z,101618.31
2022-10-18T08:38:57.530Z,101618.00
2022-10-18T08:42:16.123Z,101623.43
2022-10-18T08:45:17.719Z,101624.80
2022-10-18T08:48:37.857Z,101615.20
2022-10-18T08:51:31.347Z,101614.27
2022-10-18T08:54:27.068Z,101611.38
2022-10-18T08:57:18.045Z,101605.67
2022-10-18T09:00:15.569Z,101607.08
2022-10-18T09:03:17.653Z,101600.94
2022-10-18T09:06:15.415Z,101598.11
2022-10-18T09:09:18.817Z,101600.94
2022-10-18T09:12:27.621Z,101601.24
2022-10-18T09:15:34.345Z,101600.24
2022-10-18T09:18:44.306Z,101597.41
2022-10-18T09:21:42.724Z,101608.73
2022-10-18T09:24:37.488Z,101605.36
2022-10-18T09:27:31.876Z,101603.56
2022-10-18T09:30:39.986Z,101599.25
2022-10-18T09:33:48.287Z,101595.62
2022-10-18T09:36:39.031Z,101592.14
2022-10-18T09:39:32.412Z,101587.48
2022-10-18T09:42:27.721Z,101589.38
2022-10-18T09:45:22.491Z,101581.98
2022-10-18T09:48:16.133Z,101581.73
2022-10-18T09:51:11.558Z,101579.88
2022-10-18T09:54:14.482Z,101574.15
2022-10-18T09:57:08.187Z,101561.97
2022-10-18T09:59:58.186Z,101564.73
2022-10-18T10:02:48.308Z,101548.77
2022-10-18T10:05:38.682Z,101538.95
2022-10-18T10:08:34.162Z,101543.71
2022-10-18T10:11:34.659Z,101545.84
2022-10-18T10:14:26.680Z,101541.88
2022-10-18T10:17:25.473Z,101537.27
2022-10-18T10:20:19.136Z,101538.20
2022-10-18T10:23:16.188Z,101541.20
2022-10-18T10:26:19.687Z,101534.61
2022-10-18T10:29:55.905Z,101537.73
2022-10-18T10:32:50.143Z,101535.59
2022-10-18T10:35:53.150Z,101527.60
2022-10-18T10:38:44.418Z,101521.66
2022-10-18T10:41:34.816Z,101512.39
2022-10-18T10:44:26.955Z,101508.23
2022-10-18T10:47:29.303Z,101507.13
2022-10-18T10:50:26.266Z,101499.30
2022-10-18T10:53:41.914Z,101493.00
2022-10-18T10:56:35.339Z,101489.19
2022-10-18T10:59:26.430Z,101488.99
2022-10-18T11:02:23.212Z,101483.27
2022-10-18T11:05:24.774Z,101483.05
2022-10-18T11:08:21.729Z,101479.45
2022-10-18T11:11:22.849Z,101475.27
2022-10-18T11:14:25.837Z,101472.58
2022-10-18T11:17:23.720Z,101465.21
2022-10-18T11:20:22.962Z,101469.31
2022-10-18T11:23:13.661Z,101461.41
2022-10-18T11:26:30.801Z,101460.69
2022-10-18T11:29:31.949Z,101476.80
2022-10-18T11:32:25.786Z,101478.58
2022-10-18T11:35:29.554Z,101475.30
2022-10-18T11:38:41.942Z,101463.73
2022-10-18T11:41:35.891Z,101452.38
2022-10-18T11:44:33.496Z,101448.11
2022-10-18T11:47:27.902Z,101448.77
2022-10-18T11:50:26.096Z,101454.60
2022-10-18T11:53:22.673Z,101448.27
2022-10-18T11:56:16.273Z,101431.95
2022-10-18T11:59:20.476Z,101415.54
2022-10-18T12:02:57.623Z,101412.72
2022-10-18T12:05:48.350Z,101415.85
2022-10-18T12:08:40.257Z,101412.95
2022-10-18T12:11:32.569Z,101406.89
2022-10-18T12:14:28.623Z,101409.63
2022-10-18T12:17:41.679Z,101404.55
2022-10-18T12:20:33.479Z,101394.30
2022-10-18T12:23:38.395Z,101404.33
2022-10-18T12:26:28.679Z,101413.67
2022-10-18T12:29:21.790Z,101406.38
2022-10-18T12:32:13.208Z,101397.59
2022-10-18T12:35:06.269Z,101385.13
2022-10-18T12:38:08.012Z,101378.60
2022-10-18T12:40:58.262Z,101385.60
2022-10-18T12:43:54.099Z,101390.61
2022-10-18T12:46:48.543Z,101392.58
2022-10-18T12:49:42.614Z,101387.08
2022-10-18T12:52:36.400Z,101390.70
2022-10-18T12:55:32.196Z,101385.19
2022-10-18T12:58:30.981Z,101370.94
2022-10-18T13:01:21.217Z,101360.54
2022-10-18T13:04:35.570Z,101353.41
2022-10-18T13:07:40.366Z,101351.14
2022-10-18T13:10:38.618Z,101342.35
2022-10-18T13:13:46.254Z,101332.38
2022-10-18T13:16:40.822Z,101326.33
2022-10-18T13:19:37.314Z,101328.30
2022-10-18T13:22:48.743Z,101324.92
2022-10-18T13:25:52.556Z,101313.86
2022-10-18T13:28:48.636Z,101308.44
2022-10-18T13:31:41.135Z,101301.18
2022-10-18T13:34:34.787Z,101306.20
2022-10-18T13:37:25.601Z,101316.80
2022-10-18T13:40:23.515Z,101321.96
2022-10-18T13:43:57.455Z,101320.83
2022-10-18T13:47:40.087Z,101322.05
2022-10-18T13:50:34.799Z,101329.69
2022-10-18T13:53:41.789Z,101333.65
2022-10-18T13:56:59.834Z,101340.98
2022-10-18T14:00:12.706Z,101359.67
2022-10-18T14:03:43.982Z,101374.73
2022-10-18T14:06:33.672Z,101373.16
2022-10-18T14:09:40.450Z,101365.71
2022-10-18T14:12:39.828Z,101364.46
2022-10-18T14:15:33.668Z,101361.16
2022-10-18T14:18:28.025Z,101359.38
2022-10-18T14:21:28.732Z,101344.42
2022-10-18T14:24:23.467Z,101328.64
2022-10-18T14:27:20.204Z,101319.96
2022-10-18T14:30:14.977Z,101319.29
2022-10-18T14:33:05.505Z,101328.15
2022-10-18T14:36:03.555Z,101336.55
2022-10-18T14:38:56.205Z,101346.15
2022-10-18T14:41:50.849Z,101353.98
2022-10-18T14:44:40.854Z,101367.52
2022-10-18T14:47:35.024Z,101382.10
2022-10-18T14:50:30.484Z,101387.81
2022-10-18T14:53:24.336Z,101392.71
2022-10-18T14:56:25.678Z,101392.88
2022-10-18T14:59:18.859Z,101383.36
2022-10-18T15:02:15.527Z,101370.89
2022-10-18T15:05:09.513Z,101368.27
2022-10-18T15:08:00.232Z,101368.80
2022-10-18T15:10:50.589Z,101361.36
2022-10-18T15:13:49.156Z,101358.70
2022-10-18T15:16:39.427Z,101353.34
2022-10-18T15:19:32.801Z,101358.75
2022-10-18T15:22:32.327Z,101365.81
2022-10-18T15:25:30.814Z,101369.44
2022-10-18T15:28:28.750Z,101371.27
2022-10-18T15:31:24.935Z,101389.06
2022-10-18T15:34:18.094Z,101398.73
2022-10-18T15:37:19.259Z,101394.18
2022-10-18T15:40:36.031Z,101375.77
2022-10-18T15:43:38.625Z,101360.75
2022-10-18T15:46:32.971Z,101369.19
2022-10-18T15:49:51.302Z,101385.55
2022-10-18T15:52:43.250Z,101386.77
2022-10-18T15:55:58.283Z,101386.60
2022-10-18T15:58:50.968Z,101377.44
2022-10-18T16:01:44.047Z,101377.19
2022-10-18T16:04:34.866Z,101376.38
2022-10-18T16:07:27.658Z,101373.93
2022-10-18T16:10:23.403Z,101368.86
2022-10-18T16:13:37.414Z,101362.63
2022-10-18T16:16:33.175Z,101364.59
2022-10-18T16:19:28.211Z,101359.71
2022-10-18T16:22:26.927Z,101355.72
2022-10-18T16:25:21.860Z,101344.38
2022-10-18T16:28:21.355Z,101320.49
2022-10-18T16:31:20.397Z,101308.14
2022-10-18T16:34:15.054Z,101327.21
2022-10-18T16:37:13.307Z,101338.70
2022-10-18T16:40:24.461Z,101351.79
2022-10-18T16:43:19.141Z,101372.14
2022-10-18T16:46:19.252Z,101392.84
2022-10-18T16:49:21.082Z,101406.80
2022-10-18T16:52:16.889Z,101415.51
2022-10-18T16:55:21.636Z,101416.48
2022-10-18T16:58:20.380Z,101416.52
2022-10-18T17:01:18.416Z,101398.63
2022-10-18T17:04:13.041Z,101389.66
2022-10-18T17:07:10.328Z,101397.88
2022-10-18T17:10:14.436Z,101400.40
2022-10-18T17:13:09.099Z,101404.14
2022-10-18T17:16:06.092Z,101392.27
2022-10-18T17:19:01.871Z,101395.53
2022-10-18T17:22:01.568Z,101397.21
2022-10-18T17:24:57.950Z,101398.85
2022-10-18T17:27:52.756Z,101398.64
2022-10-18T17:30:47.401Z,101401.77
2022-10-18T17:33:42.121Z,101407.20
2022-10-18T17:36:37.327Z,101411.63
2022-10-18T17:39:34.977Z,101414.66
2022-10-18T17:42:29.641Z,101413.66
2022-10-18T17:45:25.513Z,101407.02
2022-10-18T17:48:20.308Z,101405.08
2022-10-18T17:51:20.965Z,101404.51
2022-10-18T17:54:17.361Z,101404.92
2022-10-18T17:57:12.126Z,101405.73
2022-10-18T18:00:09.187Z,101404.70
2022-10-18T18:03:09.841Z,101406.60
2022-10-18T18:06:17.694Z,101407.14
2022-10-18T18:09:20.405Z,101406.20
2022-10-18T18:12:15.090Z,101405.94
2022-10-18T18:15:14.582Z,101401.57
2022-10-18T18:18:09.434Z,101402.64
2022-10-18T18:21:10.785Z,101400.14
2022-10-18T18:24:16.147Z,101395.63
2022-10-18T18:27:14.288Z,101392.64
2022-10-18T18:30:12.676Z,101388.23
2022-10-18T18:33:07.851Z,101383.55
2022-10-18T18:36:07.030Z,101387.88
2022-10-18T18:39:02.549Z,101384.02
2022-10-18T18:42:01.903Z,101388.85
2022-10-18T18:44:56.178Z,101389.33
2022-10-18T18:47:50.753Z,101386.67
2022-10-18T18:50:50.780Z,101383.75
2022-10-18T18:53:46.007Z,101380.98
2022-10-18T18:56:40.387Z,101381.15
2022-10-18T18:59:35.334Z,101380.65
2022-10-18T19:02:31.619Z,101382.65
2022-10-18T19:05:28.281Z,101380.79
2022-10-18T19:08:22.814Z,101387.86
2022-10-18T19:11:19.544Z,101389.73
2022-10-18T19:14:14.008Z,101390.66
2022-10-18T19:17:09.612Z,101392.59
2022-10-18T19:20:05.312Z,101390.76
2022-10-18T19:22:59.832Z,101391.54
2022-10-18T19:25:54.327Z,101392.13
2022-10-18T19:28:48.651Z,101393.43
2022-10-18T19:31:43.256Z,101391.04
2022-10-18T19:34:38.566Z,101399.07
2022-10-18T19:37:33.352Z,101401.48
2022-10-18T19:40:27.993Z,101403.13
2022-10-18T19:43:22.325Z,101398.54
2022-10-18T19:46:17.091Z,101400.51
2022-10-18T19:49:11.886Z,101399.06
2022-10-18T19:52:06.573Z,101395.79
2022-10-18T19:55:01.275Z,101396.52
2022-10-18T19:57:55.963Z,101393.52
2022-10-18T20:00:54.824Z,101392.02
2022-10-18T20:03:51.180Z,101394.52
2022-10-18T20:06:48.087Z,101403.64
2022-10-18T20:09:42.829Z,101404.11
2022-10-18T20:12:37.234Z,101407.02
2022-10-18T20:15:31.428Z,101402.91
2022-10-18T20:18:25.804Z,101408.08
2022-10-18T20:21:21.291Z,101409.63
2022-10-18T20:24:16.539Z,101410.94
2022-10-18T20:27:10.961Z,101414.57
2022-10-18T20:30:09.012Z,101417.33
2022-10-18T20:33:06.231Z,101417.05
2022-10-18T20:36:04.596Z,101415.85
2022-10-18T20:39:00.678Z,101415.02
2022-10-18T20:41:55.663Z,101418.17
2022-10-18T20:44:50.182Z,101420.33
2022-10-18T20:47:44.965Z,101415.06
2022-10-18T20:50:43.575Z,101406.25
2022-10-18T20:53:38.708Z,101412.53
2022-10-18T20:56:34.530Z,101415.14
2022-10-18T20:59:29.053Z,101409.23
2022-10-18T21:02:23.816Z,101407.66
2022-10-18T21:05:18.505Z,101410.94
2022-10-18T21:08:12.890Z,101413.25
2022-10-18T21:11:08.062Z,101416.84
2022-10-18T21:14:03.354Z,101419.17
2022-10-18T21:16:57.655Z,101414.77
2022-10-18T21:19:52.388Z,101419.16
2022-10-18T21:22:46.816Z,101418.19
2022-10-18T21:25:44.850Z,101417.70
2022-10-18T21:28:39.642Z,101416.04
2022-10-18T21:31:35.979Z,101409.13
2022-10-18T21:34:30.630Z,101411.11
2022-10-18T21:37:25.306Z,101411.65
2022-10-18T21:40:21.230Z,101414.13
2022-10-18T21:43:18.007Z,101419.58
2022-10-18T21:46:12.693Z,101423.79
2022-10-18T21:49:07.417Z,101422.59
2022-10-18T21:52:03.817Z,101420.31
2022-10-18T21:54:58.618Z,101415.68
2022-10-18T21:57:52.905Z,101413.86
2022-10-18T22:00:47.420Z,101414.36
2022-10-18T22:03:41.757Z,101409.19
2022-10-18T22:06:37.708Z,101407.42
2022-10-18T22:09:30.675Z,101401.89
2022-10-18T22:12:24.852Z,101400.58
2022-10-18T22:15:19.573Z,101396.82
2022-10-18T22:18:13.895Z,101394.33
2022-10-18T22:21:10.373Z,101392.35
2022-10-18T22:24:06.874Z,101395.41
2022-10-18T22:27:00.931Z,101392.75
2022-10-18T22:29:54.968Z,101390.02
2022-10-18T22:32:48.977Z,101388.30
2022-10-18T22:35:43.045Z,101381.77
2022-10-18T22:38:39.092Z,101380.51
2022-10-18T22:41:31.545Z,101374.25
2022-10-18T22:44:26.046Z,101371.10
2022-10-18T22:47:20.211Z,101368.08
2022-10-18T22:50:14.592Z,101362.75
2022-10-18T22:53:08.902Z,101363.27
2022-10-18T22:56:02.995Z,101368.04
2022-10-18T22:58:57.048Z,101365.28
2022-10-18T23:01:51.325Z,101371.13
2022-10-18T23:04:45.409Z,101369.87
2022-10-18T23:07:39.425Z,101368.54
2022-10-18T23:10:33.743Z,101364.44
2022-10-18T23:13:28.532Z,101356.43
2022-10-18T23:16:22.584Z,101357.23
2022-10-18T23:19:19.767Z,101353.81
2022-10-18T23:22:17.018Z,101355.88
2022-10-18T23:25:12.163Z,101351.35
2022-10-18T23:28:06.794Z,101345.96
2022-10-18T23:31:00.769Z,101340.73
2022-10-18T23:33:56.149Z,101340.48
2022-10-18T23:36:50.194Z,101348.41
2022-10-18T23:39:44.232Z,101344.91
2022-10-18T23:42:38.404Z,101344.42
2022-10-18T23:45:32.504Z,101346.70
2022-10-18T23:48:26.835Z,101346.77
2022-10-18T23:51:21.300Z,101345.77
2022-10-18T23:54:15.307Z,101346.65
2022-10-18T23:57:09.327Z,101346.68
